createdAt,value
2022-11-13T00:01:19.781Z,9.20
2022-11-13T00:03:47.141Z,9.20
2022-11-13T00:06:15.552Z,9.20
2022-11-13T00:08:42.631Z,9.20
2022-11-13T00:11:18.510Z,9.20
2022-11-13T00:13:46.440Z,9.20
2022-11-13T00:16:16.142Z,9.20
2022-11-13T00:18:43.463Z,9.20
2022-11-13T00:21:19.448Z,9.20
2022-11-13T00:23:47.993Z,9.10
2022-11-13T00:26:17.610Z,9.20
2022-11-13T00:28:45.233Z,9.20
2022-11-13T00:31:14.878Z,9.20
2022-11-13T00:36:29.333Z,9.20
2022-11-13T00:38:56.489Z,9.10
2022-11-13T00:41:24.242Z,9.10
2022-11-13T00:43:51.578Z,9.10
2022-11-13T00:46:19.446Z,9.10
2022-11-13T00:48:46.521Z,9.10
2022-11-13T00:51:13.850Z,9.10
2022-11-13T00:53:40.867Z,9.10
2022-11-13T00:56:08.261Z,9.10
2022-11-13T00:58:35.354Z,9.10
2022-11-13T01:01:12.242Z,9.20
2022-11-13T01:03:39.175Z,9.10
2022-11-13T01:06:17.699Z,9.10
2022-11-13T01:08:44.860Z,9.10
2022-11-13T01:11:18.592Z,9.10
2022-11-13T01:13:48.037Z,9.10
2022-11-13T01:16:16.629Z,9.10
2022-11-13T01:18:44.246Z,9.20
2022-11-13T01:21:15.136Z,9.10
2022-11-13T01:23:42.270Z,9.20
2022-11-13T01:26:17.502Z,9.20
2022-11-13T01:28:45.087Z,9.10
2022-11-13T01:31:15.290Z,9.10
2022-11-13T01:33:43.200Z,9.20
2022-11-13T01:36:25.628Z,9.10
2022-11-13T01:38:53.082Z,9.10
2022-11-13T01:41:29.304Z,9.10
2022-11-13T01:43:56.960Z,9.10
2022-11-13T01:46:28.223Z,9.10
2022-11-13T01:49:10.003Z,9.10
2022-11-13T01:51:54.046Z,9.10
2022-11-13T01:54:25.668Z,9.10
2022-11-13T01:56:55.089Z,9.10
2022-11-13T01:59:29.158Z,9.10
2022-11-13T02:01:56.938Z,9.10
2022-11-13T02:07:11.709Z,9.10
2022-11-13T02:09:42.389Z,9.10
2022-11-13T02:12:12.775Z,9.10
2022-11-13T02:14:52.415Z,9.10
2022-11-13T02:17:23.766Z,9.10
2022-11-13T02:19:55.649Z,9.00
2022-11-13T02:22:34.457Z,9.00
2022-11-13T02:25:03.700Z,9.00
2022-11-13T02:27:42.894Z,9.10
2022-11-13T02:30:36.342Z,9.00
2022-11-13T02:33:30.389Z,9.00
2022-11-13T02:35:57.502Z,9.00
2022-11-13T02:38:24.430Z,9.00
2022-11-13T02:40:51.277Z,9.00
2022-11-13T02:43:19.313Z,9.00
2022-11-13T02:45:46.165Z,8.90
2022-11-13T02:48:13.078Z,8.90
2022-11-13T02:50:40.050Z,8.90
2022-11-13T02:53:07.362Z,8.90
2022-11-13T02:55:34.215Z,8.90
2022-11-13T02:58:01.062Z,8.90
2022-11-13T03:00:27.899Z,8.90
2022-11-13T03:02:55.886Z,8.90
2022-11-13T03:05:23.483Z,8.90
2022-11-13T03:07:50.478Z,8.90
2022-11-13T03:10:17.861Z,8.90
2022-11-13T03:12:44.801Z,8.90
2022-11-13T03:15:11.695Z,8.90
2022-11-13T03:17:38.756Z,8.90
2022-11-13T03:20:05.821Z,8.90
2022-11-13T03:22:32.716Z,8.90
2022-11-13T03:25:00.484Z,8.90
2022-11-13T03:27:27.393Z,8.90
2022-11-13T03:29:54.170Z,8.90
2022-11-13T03:32:21.200Z,8.90
2022-11-13T03:34:49.158Z,8.90
2022-11-13T03:37:16.336Z,8.90
2022-11-13T03:39:44.364Z,9.00
2022-11-13T03:42:11.144Z,8.90
2022-11-13T03:44:38.944Z,8.90
2022-11-13T03:47:05.829Z,8.90
2022-11-13T03:49:32.620Z,8.90
2022-11-13T03:51:59.448Z,8.90
2022-11-13T03:54:26.307Z,8.90
2022-11-13T03:56:53.169Z,8.90
2022-11-13T03:59:19.989Z,8.90
2022-11-13T04:01:46.852Z,8.90
2022-11-13T04:04:13.783Z,8.90
2022-11-13T04:06:40.657Z,8.90
2022-11-13T04:09:08.089Z,8.90
2022-11-13T04:11:35.115Z,8.90
2022-11-13T04:14:02.018Z,9.00
2022-11-13T04:16:28.824Z,8.90
2022-11-13T04:18:55.668Z,9.00
2022-11-13T04:21:22.511Z,9.00
2022-11-13T04:23:49.336Z,9.00
2022-11-13T04:26:17.182Z,9.00
2022-11-13T04:28:43.981Z,9.00
2022-11-13T04:31:10.796Z,9.00
2022-11-13T04:33:37.537Z,9.00
2022-11-13T04:36:04.658Z,9.00
2022-11-13T04:38:31.780Z,9.00
2022-11-13T04:41:17.526Z,9.10
2022-11-13T04:43:44.391Z,9.10
2022-11-13T04:46:11.206Z,9.10
2022-11-13T04:48:38.084Z,9.10
2022-11-13T04:51:05.353Z,9.10
2022-11-13T04:53:32.343Z,9.00
2022-11-13T04:55:59.249Z,9.00
2022-11-13T04:58:26.218Z,9.00
2022-11-13T05:00:53.187Z,9.00
2022-11-13T05:03:20.031Z,9.00
2022-11-13T05:05:47.128Z,9.00
2022-11-13T05:08:13.970Z,9.00
2022-11-13T05:10:41.677Z,9.00
2022-11-13T05:13:08.463Z,9.00
2022-11-13T05:15:35.213Z,9.00
2022-11-13T05:18:02.119Z,9.00
2022-11-13T05:20:29.902Z,9.00
2022-11-13T05:22:56.986Z,9.00
2022-11-13T05:25:23.929Z,9.00
2022-11-13T05:27:50.721Z,9.00
2022-11-13T05:30:17.885Z,9.00
2022-11-13T05:32:44.755Z,9.00
2022-11-13T05:35:12.854Z,9.00
2022-11-13T05:37:40.269Z,9.00
2022-11-13T05:40:07.861Z,9.00
2022-11-13T05:42:34.925Z,9.00
2022-11-13T05:45:01.745Z,9.00
2022-11-13T05:47:28.563Z,9.00
2022-11-13T05:49:55.413Z,9.00
2022-11-13T05:52:22.254Z,9.10
2022-11-13T05:54:49.140Z,9.10
2022-11-13T05:57:16.005Z,9.10
2022-11-13T05:59:42.805Z,9.10
2022-11-13T06:02:09.774Z,9.10
2022-11-13T06:04:36.785Z,9.10
2022-11-13T06:07:03.567Z,9.10
2022-11-13T06:09:30.592Z,9.10
2022-11-13T06:11:57.457Z,9.10
2022-11-13T06:14:24.907Z,9.10
2022-11-13T06:16:51.723Z,9.20
2022-11-13T06:19:18.579Z,9.20
2022-11-13T06:21:45.456Z,9.20
2022-11-13T06:24:12.991Z,9.20
2022-11-13T06:26:40.703Z,9.20
2022-11-13T06:29:09.814Z,9.20
2022-11-13T06:31:37.753Z,9.20
2022-11-13T06:34:05.813Z,9.20
2022-11-13T06:36:35.516Z,9.10
2022-11-13T06:39:06.617Z,9.10
2022-11-13T06:41:33.688Z,9.20
2022-11-13T06:44:03.141Z,9.20
2022-11-13T06:46:31.401Z,9.20
2022-11-13T06:48:58.862Z,9.20
2022-11-13T06:51:28.883Z,9.30
2022-11-13T06:53:58.187Z,9.30
2022-11-13T06:56:25.664Z,9.30
2022-11-13T06:58:54.133Z,9.40
2022-11-13T07:01:23.904Z,9.40
2022-11-13T07:03:51.094Z,9.50
2022-11-13T07:06:20.578Z,9.50
2022-11-13T07:08:48.097Z,9.50
2022-11-13T07:11:18.999Z,9.50
2022-11-13T07:13:46.585Z,9.60
2022-11-13T07:16:17.347Z,9.50
2022-11-13T07:18:54.910Z,9.50
2022-11-13T07:21:22.618Z,9.50
2022-11-13T07:23:50.430Z,9.50
2022-11-13T07:26:18.238Z,9.40
2022-11-13T07:28:45.944Z,9.40
2022-11-13T07:31:14.306Z,9.40
2022-11-13T07:33:41.599Z,9.40
2022-11-13T07:36:09.930Z,9.40
2022-11-13T07:38:36.949Z,9.50
2022-11-13T07:41:04.232Z,9.50
2022-11-13T07:43:31.294Z,9.60
2022-11-13T07:45:59.635Z,9.60
2022-11-13T07:48:28.106Z,9.70
2022-11-13T07:50:55.688Z,9.60
2022-11-13T07:53:23.177Z,9.60
2022-11-13T07:55:50.019Z,9.60
2022-11-13T07:58:17.197Z,9.60
2022-11-13T08:00:44.711Z,9.60
2022-11-13T08:03:18.599Z,9.60
2022-11-13T08:05:45.698Z,9.60
2022-11-13T08:08:14.005Z,9.60
2022-11-13T08:10:41.263Z,9.60
2022-11-13T08:13:10.555Z,9.70
2022-11-13T08:15:38.171Z,9.70
2022-11-13T08:18:05.721Z,9.60
2022-11-13T08:20:32.890Z,9.60
2022-11-13T08:23:04.673Z,9.70
2022-11-13T08:25:32.584Z,9.60
2022-11-13T08:27:59.842Z,9.70
2022-11-13T08:30:27.914Z,9.70
2022-11-13T08:32:55.168Z,9.70
2022-11-13T08:35:28.017Z,9.80
2022-11-13T08:38:03.079Z,9.90
2022-11-13T08:40:30.345Z,9.90
2022-11-13T08:43:04.745Z,9.90
2022-11-13T08:45:32.708Z,9.90
2022-11-13T08:48:04.569Z,9.90
2022-11-13T08:50:33.391Z,9.90
2022-11-13T08:53:01.162Z,9.90
2022-11-13T08:55:28.375Z,9.90
2022-11-13T08:57:59.292Z,9.90
2022-11-13T09:00:28.478Z,10.00
2022-11-13T09:02:56.673Z,10.10
2022-11-13T09:05:24.721Z,10.10
2022-11-13T09:07:55.359Z,10.10
2022-11-13T09:10:22.234Z,10.10
2022-11-13T09:12:49.049Z,10.20
2022-11-13T09:15:21.699Z,10.20
2022-11-13T09:17:51.050Z,10.30
2022-11-13T09:20:22.461Z,10.30
2022-11-13T09:22:57.026Z,10.30
2022-11-13T09:25:23.894Z,10.30
2022-11-13T09:27:59.122Z,10.30
2022-11-13T09:30:26.888Z,10.30
2022-11-13T09:32:59.083Z,10.30
2022-11-13T09:35:36.225Z,10.30
2022-11-13T09:38:11.788Z,10.30
2022-11-13T09:40:55.240Z,10.30
2022-11-13T09:43:35.045Z,10.30
2022-11-13T09:46:21.555Z,10.30
2022-11-13T09:48:55.878Z,10.30
2022-11-13T09:51:29.533Z,10.30
2022-11-13T09:53:57.640Z,10.30
2022-11-13T09:56:55.597Z,10.30
2022-11-13T09:59:50.029Z,10.30
2022-11-13T10:02:47.674Z,10.40
2022-11-13T10:05:33.018Z,10.50
2022-11-13T10:08:35.882Z,10.50
2022-11-13T10:11:15.745Z,10.50
2022-11-13T10:13:52.260Z,10.50
2022-11-13T10:16:57.241Z,10.50
2022-11-13T10:19:23.983Z,10.60
2022-11-13T10:22:26.571Z,10.50
2022-11-13T10:24:52.702Z,10.60
2022-11-13T10:27:19.586Z,10.60
2022-11-13T10:29:49.138Z,10.60
2022-11-13T10:32:23.397Z,10.60
2022-11-13T10:35:01.228Z,10.60
2022-11-13T10:37:45.124Z,10.70
2022-11-13T10:40:11.979Z,10.70
2022-11-13T10:42:42.009Z,10.80
2022-11-13T10:45:18.703Z,10.90
2022-11-13T10:48:03.888Z,10.90
2022-11-13T10:50:33.113Z,11.00
2022-11-13T10:52:59.954Z,11.00
2022-11-13T10:55:41.317Z,11.10
2022-11-13T10:58:19.729Z,11.10
2022-11-13T11:00:49.774Z,11.20
2022-11-13T11:03:25.627Z,11.30
2022-11-13T11:05:59.022Z,11.40
2022-11-13T11:08:34.032Z,11.40
2022-11-13T11:11:31.963Z,11.50
2022-11-13T11:14:18.609Z,11.50
2022-11-13T11:16:47.498Z,11.60
2022-11-13T11:19:16.516Z,11.60
2022-11-13T11:21:44.696Z,11.70
2022-11-13T11:24:21.221Z,11.70
2022-11-13T11:27:02.413Z,11.80
2022-11-13T11:29:41.356Z,11.90
2022-11-13T11:33:00.489Z,11.90
2022-11-13T11:35:46.187Z,11.90
2022-11-13T11:38:33.207Z,12.00
2022-11-13T11:41:13.316Z,12.10
2022-11-13T11:43:47.579Z,12.10
2022-11-13T11:46:19.829Z,12.20
2022-11-13T11:48:46.743Z,12.20
2022-11-13T11:51:19.276Z,12.30
2022-11-13T11:53:46.238Z,12.30
2022-11-13T11:56:32.803Z,12.40
2022-11-13T11:59:21.751Z,12.40
2022-11-13T12:02:06.120Z,12.40
2022-11-13T12:04:35.710Z,12.40
2022-11-13T12:07:26.392Z,12.40
2022-11-13T12:10:01.681Z,12.40
2022-11-13T12:12:31.246Z,12.30
2022-11-13T12:15:13.624Z,12.20
2022-11-13T12:18:33.175Z,12.30
2022-11-13T12:21:18.740Z,12.20
2022-11-13T12:24:23.690Z,12.10
2022-11-13T12:27:09.770Z,12.00
2022-11-13T12:30:00.293Z,12.00
2022-11-13T12:33:01.091Z,11.90
2022-11-13T12:35:29.330Z,11.80
2022-11-13T12:37:58.463Z,11.70
2022-11-13T12:40:42.865Z,11.70
2022-11-13T12:43:34.046Z,11.60
2022-11-13T12:46:08.710Z,11.50
2022-11-13T12:48:36.985Z,11.50
2022-11-13T12:51:07.927Z,11.40
2022-11-13T12:53:50.275Z,11.40
2022-11-13T12:56:27.543Z,11.30
2022-11-13T13:02:08.758Z,11.20
2022-11-13T13:04:54.157Z,11.20
2022-11-13T13:07:44.572Z,11.20
2022-11-13T13:10:16.629Z,11.20
2022-11-13T13:13:01.903Z,11.10
2022-11-13T13:15:53.002Z,11.10
2022-11-13T13:18:20.911Z,11.10
2022-11-13T13:21:15.633Z,11.10
2022-11-13T13:23:46.228Z,11.00
2022-11-13T13:26:27.634Z,11.00
2022-11-13T13:29:11.361Z,10.90
2022-11-13T13:31:57.523Z,10.90
2022-11-13T13:35:01.962Z,10.80
2022-11-13T13:37:47.596Z,10.70
2022-11-13T13:40:52.790Z,10.60
2022-11-13T13:43:19.803Z,10.50
2022-11-13T13:45:55.713Z,10.40
2022-11-13T13:48:27.424Z,10.40
2022-11-13T13:50:56.943Z,10.40
2022-11-13T13:53:33.388Z,10.40
2022-11-13T13:56:03.727Z,10.40
2022-11-13T13:58:34.651Z,10.40
2022-11-13T14:01:19.015Z,10.30
2022-11-13T14:03:46.969Z,10.30
2022-11-13T14:06:24.579Z,10.30
2022-11-13T14:08:51.603Z,10.30
2022-11-13T14:11:29.843Z,10.30
2022-11-13T14:14:11.121Z,10.30
2022-11-13T14:16:52.351Z,10.30
2022-11-13T14:19:19.787Z,10.30
2022-11-13T14:21:53.144Z,10.30
2022-11-13T14:24:34.185Z,10.30
2022-11-13T14:27:07.695Z,10.30
2022-11-13T14:29:47.799Z,10.30
2022-11-13T14:32:24.573Z,10.30
2022-11-13T14:34:55.373Z,10.30
2022-11-13T14:37:39.970Z,10.30
2022-11-13T14:40:26.423Z,10.30
2022-11-13T14:42:59.676Z,10.30
2022-11-13T14:45:31.512Z,10.30
2022-11-13T14:48:24.418Z,10.30
2022-11-13T14:50:52.903Z,10.20
2022-11-13T14:53:30.909Z,10.20
2022-11-13T14:56:09.135Z,10.30
2022-11-13T14:58:47.202Z,10.30
2022-11-13T15:01:23.611Z,10.30
2022-11-13T15:03:52.528Z,10.30
2022-11-13T15:06:22.004Z,10.30
2022-11-13T15:08:51.336Z,10.30
2022-11-13T15:11:20.011Z,10.30
2022-11-13T15:13:47.222Z,10.30
2022-11-13T15:16:20.410Z,10.30
2022-11-13T15:18:51.850Z,10.30
2022-11-13T15:21:19.108Z,10.30
2022-11-13T15:23:45.994Z,10.30
2022-11-13T15:26:13.253Z,10.30
2022-11-13T15:28:40.666Z,10.30
2022-11-13T15:31:31.838Z,10.30
2022-11-13T15:33:59.047Z,10.30
2022-11-13T15:36:26.656Z,10.30
2022-11-13T15:38:53.818Z,10.20
2022-11-13T15:41:22.876Z,10.20
2022-11-13T15:43:52.612Z,10.20
2022-11-13T15:46:20.885Z,10.20
2022-11-13T15:48:49.028Z,10.20
2022-11-13T15:51:24.857Z,10.20
2022-11-13T15:54:18.576Z,10.10
2022-11-13T15:56:47.183Z,10.10
2022-11-13T15:59:14.961Z,10.10
2022-11-13T16:01:42.197Z,10.10
2022-11-13T16:04:11.975Z,10.10
2022-11-13T16:06:40.345Z,10.10
2022-11-13T16:09:14.136Z,10.00
2022-11-13T16:11:42.478Z,10.00
2022-11-13T16:14:11.174Z,10.00
2022-11-13T16:16:43.591Z,10.00
2022-11-13T16:19:15.101Z,10.00
2022-11-13T16:21:42.081Z,10.10
2022-11-13T16:24:11.452Z,10.00
2022-11-13T16:26:40.127Z,10.00
2022-11-13T16:29:19.343Z,10.00
2022-11-13T16:31:46.656Z,10.00
2022-11-13T16:34:13.833Z,10.00
2022-11-13T16:36:41.315Z,10.00
2022-11-13T16:39:17.356Z,10.00
2022-11-13T16:41:44.265Z,10.00
2022-11-13T16:44:11.313Z,10.00
2022-11-13T16:46:41.724Z,10.00
2022-11-13T16:49:21.182Z,10.00
2022-11-13T16:51:48.239Z,9.90
2022-11-13T16:54:15.326Z,9.90
2022-11-13T16:56:42.287Z,9.90
2022-11-13T16:59:10.857Z,9.90
2022-11-13T17:01:38.193Z,9.90
2022-11-13T17:04:05.133Z,9.90
2022-11-13T17:06:37.141Z,9.80
2022-11-13T17:09:04.776Z,9.80
2022-11-13T17:11:32.891Z,9.80
2022-11-13T17:14:02.433Z,9.80
2022-11-13T17:16:31.090Z,9.80
2022-11-13T17:18:59.502Z,9.70
2022-11-13T17:21:29.565Z,9.70
2022-11-13T17:24:01.047Z,9.70
2022-11-13T17:26:29.258Z,9.60
2022-11-13T17:28:56.275Z,9.60
2022-11-13T17:31:24.220Z,9.60
2022-11-13T17:33:55.139Z,9.60
2022-11-13T17:36:22.703Z,9.50
2022-11-13T17:38:50.576Z,9.60
2022-11-13T17:41:17.699Z,9.50
2022-11-13T17:43:45.980Z,9.50
2022-11-13T17:46:15.216Z,9.50
2022-11-13T17:48:43.162Z,9.50
2022-11-13T17:51:15.062Z,9.50
2022-11-13T17:53:42.157Z,9.50
2022-11-13T17:56:13.382Z,9.40
2022-11-13T17:58:45.261Z,9.40
2022-11-13T18:01:19.503Z,9.30
2022-11-13T18:03:47.476Z,9.20
2022-11-13T18:06:19.702Z,9.30
2022-11-13T18:08:47.411Z,9.20
2022-11-13T18:11:19.375Z,9.20
2022-11-13T18:13:50.792Z,9.10
2022-11-13T18:16:34.469Z,9.10
2022-11-13T18:19:03.505Z,9.10
2022-11-13T18:21:32.530Z,9.00
2022-11-13T18:24:05.533Z,9.00
2022-11-13T18:26:33.142Z,9.00
2022-11-13T18:29:01.006Z,9.00
2022-11-13T18:31:28.058Z,9.00
2022-11-13T18:33:56.226Z,9.00
2022-11-13T18:36:23.188Z,9.00
2022-11-13T18:38:49.989Z,9.00
2022-11-13T18:41:19.096Z,8.90
2022-11-13T18:43:48.208Z,8.90
2022-11-13T18:46:17.408Z,8.90
2022-11-13T18:48:45.362Z,9.00
2022-11-13T18:51:15.630Z,8.90
2022-11-13T18:53:45.538Z,8.90
2022-11-13T18:56:15.030Z,8.90
2022-11-13T18:58:44.548Z,8.90
2022-11-13T19:01:22.660Z,8.90
2022-11-13T19:04:16.208Z,8.90
2022-11-13T19:06:39.213Z,8.90
2022-11-13T19:09:10.591Z,8.90
2022-11-13T19:11:37.593Z,9.00
2022-11-13T19:14:04.799Z,9.00
2022-11-13T19:16:37.166Z,9.00
2022-11-13T19:19:07.913Z,9.00
2022-11-13T19:21:36.646Z,9.10
2022-11-13T19:24:03.993Z,9.00
2022-11-13T19:26:31.361Z,9.10
2022-11-13T19:28:58.790Z,9.10
2022-11-13T19:31:27.646Z,9.10
2022-11-13T19:33:59.721Z,9.10
2022-11-13T19:36:28.384Z,9.20
2022-11-13T19:38:56.231Z,9.20
2022-11-13T19:41:25.353Z,9.20
2022-11-13T19:43:52.760Z,9.20
2022-11-13T19:46:20.221Z,9.20
2022-11-13T19:48:49.081Z,9.20
2022-11-13T19:51:18.884Z,9.20
2022-11-13T19:53:46.490Z,9.20
2022-11-13T19:56:21.670Z,9.20
2022-11-13T19:58:49.838Z,9.20
2022-11-13T20:01:22.119Z,9.20
2022-11-13T20:03:57.125Z,9.20
2022-11-13T20:06:25.557Z,9.30
2022-11-13T20:08:52.558Z,9.30
2022-11-13T20:11:19.522Z,9.30
2022-11-13T20:13:46.659Z,9.30
2022-11-13T20:16:15.554Z,9.30
2022-11-13T20:18:43.263Z,9.30
2022-11-13T20:21:10.488Z,9.30
2022-11-13T20:23:37.586Z,9.30
2022-11-13T20:26:07.535Z,9.30
2022-11-13T20:28:34.838Z,9.40
2022-11-13T20:31:16.340Z,9.30
2022-11-13T20:33:43.389Z,9.40
2022-11-13T20:36:10.458Z,9.40
2022-11-13T20:38:37.530Z,9.30
2022-11-13T20:41:10.834Z,9.40
2022-11-13T20:43:38.225Z,9.40
2022-11-13T20:46:10.128Z,9.40
2022-11-13T20:48:37.929Z,9.40
2022-11-13T20:51:06.404Z,9.40
2022-11-13T20:53:33.919Z,9.40
2022-11-13T20:56:00.832Z,9.40
2022-11-13T20:58:28.050Z,9.40
2022-11-13T21:01:05.443Z,9.40
2022-11-13T21:03:37.139Z,9.40
2022-11-13T21:06:08.090Z,9.40
2022-11-13T21:08:35.153Z,9.40
2022-11-13T21:11:03.619Z,9.40
2022-11-13T21:13:30.802Z,9.30
2022-11-13T21:15:58.094Z,9.40
2022-11-13T21:18:25.251Z,9.40
2022-11-13T21:20:52.075Z,9.30
2022-11-13T21:23:18.836Z,9.40
2022-11-13T21:25:45.618Z,9.30
2022-11-13T21:28:12.445Z,9.40
2022-11-13T21:30:39.236Z,9.30
2022-11-13T21:33:06.093Z,9.30
2022-11-13T21:35:32.916Z,9.30
2022-11-13T21:37:59.733Z,9.30
2022-11-13T21:40:26.773Z,9.30
2022-11-13T21:42:55.959Z,9.30
2022-11-13T21:45:22.755Z,9.30
2022-11-13T21:47:49.502Z,9.30
2022-11-13T21:50:16.312Z,9.30
2022-11-13T21:52:43.297Z,9.30
2022-11-13T21:55:10.686Z,9.30
2022-11-13T21:57:37.454Z,9.30
2022-11-13T22:00:04.608Z,9.30
2022-11-13T22:02:31.382Z,9.30
2022-11-13T22:04:58.171Z,9.30
2022-11-13T22:07:24.960Z,9.20
2022-11-13T22:09:51.875Z,9.20
2022-11-13T22:12:18.643Z,9.20
2022-11-13T22:14:45.698Z,9.30
2022-11-13T22:17:12.459Z,9.30
2022-11-13T22:19:39.287Z,9.30
2022-11-13T22:22:06.129Z,9.30
2022-11-13T22:24:32.912Z,9.30
2022-11-13T22:26:59.682Z,9.30
2022-11-13T22:29:26.780Z,9.30
2022-11-13T22:31:53.540Z,9.20
2022-11-13T22:34:20.360Z,9.30
2022-11-13T22:36:47.144Z,9.20
2022-11-13T22:39:13.979Z,9.20
2022-11-13T22:41:40.689Z,9.20
2022-11-13T22:44:10.469Z,9.20
2022-11-13T22:46:37.338Z,9.20
2022-11-13T22:49:05.709Z,9.20
2022-11-13T22:51:38.714Z,9.20
2022-11-13T22:54:12.968Z,9.20
2022-11-13T22:56:41.074Z,9.20
2022-11-13T22:59:10.531Z,9.20
2022-11-13T23:01:39.053Z,9.20
2022-11-13T23:04:07.950Z,9.20
2022-11-13T23:06:36.157Z,9.20
2022-11-13T23:09:04.035Z,9.20
2022-11-13T23:11:38.029Z,9.10
2022-11-13T23:14:07.849Z,9.10
2022-11-13T23:16:34.890Z,9.10
2022-11-13T23:19:02.780Z,9.10
2022-11-13T23:21:30.704Z,9.10
2022-11-13T23:23:59.269Z,9.10
2022-11-13T23:26:27.842Z,9.10
2022-11-13T23:28:55.198Z,9.10
2022-11-13T23:31:22.542Z,9.00
2022-11-13T23:33:49.651Z,9.00
2022-11-13T23:36:18.098Z,9.00
2022-11-13T23:38:45.711Z,9.00
2022-11-13T23:41:12.882Z,9.00
2022-11-13T23:44:09.870Z,9.00
2022-11-13T23:46:26.933Z,9.00
2022-11-13T23:48:53.757Z,9.00
2022-11-13T23:51:20.579Z,9.00
2022-11-13T23:53:47.494Z,9.00
2022-11-13T23:56:14.314Z,9.00
2022-11-13T23:58:41.114Z,9.00
